createdAt,value
2022-12-23T00:01:03.505Z,0
2022-12-23T00:06:07.656Z,0
2022-12-23T00:11:11.829Z,0
2022-12-23T00:16:16.254Z,0
2022-12-23T00:21:20.156Z,0
2022-12-23T00:26:24.307Z,0
2022-12-23T00:31:28.546Z,0
2022-12-23T00:36:32.791Z,0
2022-12-23T00:41:36.810Z,0
2022-12-23T00:46:40.967Z,0
2022-12-23T00:51:45.159Z,0
2022-12-23T00:56:49.279Z,0
2022-12-23T01:01:53.583Z,0
2022-12-23T01:06:57.603Z,0
2022-12-23T01:12:01.744Z,0
2022-12-23T01:17:05.946Z,0
2022-12-23T01:22:10.082Z,0
2022-12-23T01:27:14.252Z,0
2022-12-23T01:32:18.564Z,0
2022-12-23T01:37:22.591Z,0
2022-12-23T01:42:26.759Z,0
2022-12-23T01:47:30.884Z,0
2022-12-23T01:52:35.043Z,0
2022-12-23T01:57:39.220Z,0
2022-12-23T02:02:43.473Z,0
2022-12-23T02:07:47.567Z,0
2022-12-23T02:12:51.697Z,0
2022-12-23T02:17:55.857Z,0
2022-12-23T02:23:00.040Z,0
2022-12-23T02:28:04.175Z,0
2022-12-23T02:33:08.347Z,0
2022-12-23T02:38:12.548Z,0
2022-12-23T02:43:16.688Z,0
2022-12-23T02:48:20.844Z,0
2022-12-23T02:53:24.983Z,0
2022-12-23T02:58:29.180Z,0
2022-12-23T03:03:33.490Z,0
2022-12-23T03:08:37.469Z,0
2022-12-23T03:13:41.626Z,0
2022-12-23T03:18:45.815Z,0
2022-12-23T03:23:55.251Z,0
2022-12-23T03:28:54.108Z,0
2022-12-23T03:33:58.286Z,0
2022-12-23T03:39:02.469Z,0
2022-12-23T03:44:06.633Z,0
2022-12-23T03:49:10.784Z,0
2022-12-23T03:54:14.903Z,0
2022-12-23T03:59:19.090Z,0
2022-12-23T04:04:23.379Z,0
2022-12-23T04:09:27.429Z,0
2022-12-23T04:14:31.599Z,0
2022-12-23T04:19:35.724Z,0
2022-12-23T04:24:39.910Z,0
2022-12-23T04:29:44.068Z,0
2022-12-23T04:34:48.225Z,0
2022-12-23T04:39:52.407Z,0
2022-12-23T04:44:56.560Z,0
2022-12-23T04:50:00.732Z,0
2022-12-23T04:55:02.987Z,0
2022-12-23T05:00:07.140Z,0
2022-12-23T05:05:11.324Z,0
2022-12-23T05:10:15.462Z,0
2022-12-23T05:15:19.640Z,0
2022-12-23T05:20:23.783Z,0
2022-12-23T05:25:26.038Z,0
2022-12-23T05:30:30.219Z,0
2022-12-23T05:35:34.383Z,0
2022-12-23T05:40:38.563Z,0
2022-12-23T05:45:42.733Z,0
2022-12-23T05:50:46.852Z,0
2022-12-23T05:55:51.043Z,0
2022-12-23T06:00:55.206Z,0
2022-12-23T06:05:59.375Z,0
2022-12-23T06:11:03.623Z,0
2022-12-23T06:16:07.730Z,0
2022-12-23T06:21:11.865Z,0
2022-12-23T06:26:16.035Z,0
2022-12-23T06:31:20.275Z,0
2022-12-23T06:36:24.352Z,0
2022-12-23T06:41:28.497Z,0
2022-12-23T06:46:32.721Z,0
2022-12-23T06:51:36.835Z,0
2022-12-23T06:56:40.953Z,0
2022-12-23T07:01:45.204Z,0
2022-12-23T07:06:49.303Z,0
2022-12-23T07:11:53.438Z,1
2022-12-23T07:16:57.704Z,3
2022-12-23T07:22:01.853Z,6
2022-12-23T07:27:05.945Z,15
2022-12-23T07:32:10.152Z,39
2022-12-23T07:37:14.252Z,77
2022-12-23T07:42:44.394Z,95
2022-12-23T07:47:22.591Z,64
2022-12-23T07:52:26.754Z,60
2022-12-23T07:57:30.908Z,98
2022-12-23T08:02:35.196Z,89
2022-12-23T08:07:39.203Z,140
2022-12-23T08:12:43.408Z,206
2022-12-23T08:17:47.611Z,269
2022-12-23T08:22:51.741Z,328
2022-12-23T08:27:55.870Z,573
2022-12-23T08:33:00.111Z,546
2022-12-23T08:38:04.207Z,670
2022-12-23T08:43:08.363Z,677
2022-12-23T08:48:12.518Z,710
2022-12-23T08:53:16.683Z,919
2022-12-23T08:58:20.832Z,1073
2022-12-23T09:03:25.124Z,1321
2022-12-23T09:08:29.222Z,840
2022-12-23T09:13:35.940Z,642
2022-12-23T09:18:37.495Z,652
2022-12-23T09:23:41.648Z,573
2022-12-23T09:28:45.823Z,528
2022-12-23T09:33:49.963Z,547
2022-12-23T09:38:54.117Z,659
2022-12-23T09:43:58.306Z,930
2022-12-23T09:49:02.427Z,1375
2022-12-23T09:54:09.648Z,1990
2022-12-23T09:59:10.755Z,1593
2022-12-23T10:04:15.092Z,1330
2022-12-23T10:09:19.130Z,1582
2022-12-23T10:14:23.236Z,1641
2022-12-23T10:19:27.423Z,1760
2022-12-23T10:24:31.610Z,1475
2022-12-23T10:29:35.738Z,1750
2022-12-23T10:34:39.910Z,2195
2022-12-23T10:39:44.062Z,2008
2022-12-23T10:44:48.204Z,2096
2022-12-23T10:49:52.481Z,2266
2022-12-23T10:54:54.657Z,2476
2022-12-23T10:59:58.808Z,3225
2022-12-23T11:05:02.990Z,3730
2022-12-23T11:10:07.153Z,3425
2022-12-23T11:15:11.450Z,2480
2022-12-23T11:20:15.651Z,2034
2022-12-23T11:25:19.619Z,2287
2022-12-23T11:30:23.746Z,2182
2022-12-23T11:35:27.966Z,3721
2022-12-23T11:40:32.081Z,3036
2022-12-23T11:45:36.289Z,2756
2022-12-23T11:50:40.448Z,2187
2022-12-23T11:55:44.571Z,1380
2022-12-23T12:00:55.156Z,1226
2022-12-23T12:05:52.888Z,1085
2022-12-23T12:10:57.089Z,1446
2022-12-23T12:16:01.224Z,2569
2022-12-23T12:21:05.397Z,2346
2022-12-23T12:26:09.586Z,2120
2022-12-23T12:31:13.823Z,1830
2022-12-23T12:36:17.890Z,1539
2022-12-23T12:41:22.033Z,1314
2022-12-23T12:46:26.279Z,1121
2022-12-23T12:51:30.352Z,1160
2022-12-23T12:56:34.515Z,1145
2022-12-23T13:01:38.771Z,1038
2022-12-23T13:06:42.896Z,855
2022-12-23T13:11:47.008Z,1665
2022-12-23T13:16:51.201Z,1629
2022-12-23T13:21:55.345Z,1611
2022-12-23T13:26:59.518Z,1117
2022-12-23T13:32:03.684Z,1062
2022-12-23T13:37:07.919Z,1379
2022-12-23T13:42:11.980Z,983
2022-12-23T13:47:16.116Z,1366
2022-12-23T13:52:20.288Z,1006
2022-12-23T13:57:24.432Z,1558
2022-12-23T14:02:28.677Z,3228
2022-12-23T14:07:32.770Z,2120
2022-12-23T14:12:36.928Z,1321
2022-12-23T14:17:41.118Z,506
2022-12-23T14:22:45.247Z,402
2022-12-23T14:27:49.413Z,630
2022-12-23T14:32:53.565Z,480
2022-12-23T14:37:57.747Z,304
2022-12-23T14:43:01.894Z,502
2022-12-23T14:48:06.069Z,292
2022-12-23T14:53:10.228Z,208
2022-12-23T14:58:14.389Z,123
2022-12-23T15:03:18.638Z,109
2022-12-23T15:08:22.744Z,101
2022-12-23T15:13:26.928Z,104
2022-12-23T15:18:31.039Z,100
2022-12-23T15:23:35.220Z,55
2022-12-23T15:28:39.349Z,29
2022-12-23T15:31:46.137Z,14
2022-12-23T15:38:54.657Z,11
2022-12-23T15:43:58.788Z,6
2022-12-23T15:49:02.973Z,4
2022-12-23T15:54:07.137Z,0
2022-12-23T15:59:11.288Z,0
2022-12-23T16:04:15.479Z,0
2022-12-23T16:09:19.642Z,0
2022-12-23T16:14:23.805Z,0
2022-12-23T16:19:27.916Z,0
2022-12-23T16:24:32.114Z,0
2022-12-23T16:29:36.290Z,0
2022-12-23T16:34:40.440Z,0
2022-12-23T16:39:44.594Z,0
2022-12-23T16:44:48.777Z,0
2022-12-23T16:49:52.901Z,0
2022-12-23T16:54:57.096Z,0
2022-12-23T17:00:01.203Z,0
2022-12-23T17:05:05.378Z,0
2022-12-23T17:10:09.538Z,0
2022-12-23T17:15:11.827Z,0
2022-12-23T17:20:15.958Z,0
2022-12-23T17:25:24.536Z,0
2022-12-23T17:30:24.323Z,0
2022-12-23T17:35:28.441Z,0
2022-12-23T17:40:32.609Z,0
2022-12-23T17:45:36.818Z,0
2022-12-23T17:50:40.946Z,0
2022-12-23T17:55:45.254Z,0
2022-12-23T18:00:49.282Z,0
2022-12-23T18:05:59.355Z,0
2022-12-23T18:10:57.611Z,0
2022-12-23T18:16:01.744Z,0
2022-12-23T18:21:05.911Z,0
2022-12-23T18:26:10.072Z,0
2022-12-23T18:31:14.288Z,0
2022-12-23T18:36:18.462Z,0
2022-12-23T18:41:22.543Z,0
2022-12-23T18:46:26.794Z,0
2022-12-23T18:51:30.925Z,0
2022-12-23T18:56:35.011Z,0
2022-12-23T19:01:37.383Z,0
2022-12-23T19:06:41.469Z,0
2022-12-23T19:11:43.735Z,0
2022-12-23T19:16:51.448Z,0
2022-12-23T19:21:52.071Z,0
2022-12-23T19:26:56.213Z,0
2022-12-23T19:32:00.398Z,0
2022-12-23T19:37:04.545Z,0
2022-12-23T19:42:08.715Z,0
2022-12-23T19:47:12.887Z,0
2022-12-23T19:52:17.012Z,0
2022-12-23T19:57:21.183Z,0
2022-12-23T20:02:25.391Z,0
2022-12-23T20:07:29.523Z,0
2022-12-23T20:12:33.676Z,0
2022-12-23T20:17:37.812Z,0
2022-12-23T20:22:42.018Z,0
2022-12-23T20:27:46.147Z,0
2022-12-23T20:32:50.287Z,0
2022-12-23T20:37:54.471Z,0
2022-12-23T20:42:58.618Z,0
2022-12-23T20:48:02.830Z,0
2022-12-23T20:53:06.973Z,0
2022-12-23T20:58:09.210Z,0
2022-12-23T21:03:13.451Z,0
2022-12-23T21:08:15.677Z,0
2022-12-23T21:13:19.845Z,0
2022-12-23T21:18:23.995Z,0
2022-12-23T21:23:28.164Z,0
2022-12-23T21:28:32.327Z,0
2022-12-23T21:33:36.506Z,0
2022-12-23T21:38:40.630Z,0
2022-12-23T21:43:44.827Z,0
2022-12-23T21:48:48.984Z,0
2022-12-23T21:53:53.110Z,0
2022-12-23T21:58:57.288Z,0
2022-12-23T22:04:01.458Z,0
2022-12-23T22:09:05.588Z,0
2022-12-23T22:14:09.825Z,0
2022-12-23T22:19:13.918Z,0
2022-12-23T22:24:18.102Z,0
2022-12-23T22:29:22.231Z,0
2022-12-23T22:34:26.402Z,0
2022-12-23T22:39:30.558Z,0
2022-12-23T22:44:34.744Z,0
2022-12-23T22:49:38.899Z,0
2022-12-23T22:54:41.150Z,0
2022-12-23T22:59:45.491Z,0
2022-12-23T23:04:47.592Z,0
2022-12-23T23:09:51.772Z,0
2022-12-23T23:14:56.032Z,0
2022-12-23T23:20:07.793Z,0
2022-12-23T23:25:10.831Z,0
2022-12-23T23:35:12.659Z,0
2022-12-23T23:40:16.752Z,0
2022-12-23T23:45:20.876Z,0
2022-12-23T23:50:25.070Z,0
2022-12-23T23:55:29.205Z,0
